KWST/WST METAR and TAF weather

Enter ICAO airport designator
Station Type Date Time Source
KWST METAR 2024/06/15 23:53 UTC NOAA

KWST 152353Z AUTO 35004KT 10SM CLR 23/07 A3002 RMK AO2 SLP166 T02280072 10256 20228 53016


Station Type Date Time Source
KWST Decoded METAR 2024/06/15 23:53 UTC NOAA

WESTERLY STATE AIRPORT, RI, United States (KWST) 41-21N 071-48W 21M
Jun 15, 2024 - 07:53 PM EDT / 2024.06.15 2353 UTC
Wind: from the N (350 degrees) at 5 MPH (4 KT):0
Visibility: 10 mile(s):0
Sky conditions: clear
Temperature: 73.0 F (22.8 C)
Dew Point: 45.0 F (7.2 C)
Relative Humidity: 36%
Pressure (altimeter): 30.02 in. Hg (1016 hPa)
Pressure tendency: 0.05 inches (1.6 hPa) higher than three hours ago
ob: KWST 152353Z AUTO 35004KT 10SM CLR 23/07 A3002 RMK AO2 SLP166 T02280072 10256 20228 53016
cycle: 0

Station Type Date Time Source
KWST TAF UTC NOAA

Error!

Example: see airport list